Airfield :
LOGIN :

Register | Disclaimer

   EN    FR    IT 

 










Legend :    VFR   Marginal VFR   IFR   Intensive IFR   Very Intensive IFR
Visi :
Ceiling :
>= 8 km
>= 3000ft
5 to 8 km
1000 to 3000 ft
1500m to 5 km
500 to 1000 ft
800 to 1500m
200 to 500 ft
< 800m
< 200 ft
Symbols :   Thunderstorms  Fog  Heavy snow  Heavy precipitations  Wind > 20 kt
SIGMETs :     Misc.  Thunderstorms  Icing  Turbulence  Mountain Waves  Volcanic Ashes






- Airport Elevation : 885 ft
- IATA code : BAS


LFSB - Bale-Mulhouse

CURRENT METAR :
  • 030100Z AUTO 16003KT 9999 NCD 14/11 Q1011 NOSIG

EXPIRED METARs :
  • 030030Z AUTO 21003KT 9999 NCD 14/10 Q1011 NOSIG
  • 030000Z AUTO 21002KT 9999 NCD 14/11 Q1011 NOSIG
  • 022330Z AUTO 00000KT 9999 NCD 15/11 Q1011 NOSIG
  • 022300Z AUTO 32002KT 9999 NCD 15/10 Q1012 NOSIG
  • 022230Z AUTO VRB02KT CAVOK 16/11 Q1012 NOSIG

TAF TAF LFSB
Valid from the 03 at 00:00 until the 04 at 00:00 UTC


022300Z 0300/0324 20004KT CAVOK
BECMG 0308/0310 FEW070TCU
TEMPO 0312/0324 -SHRA FEW060CB
PROB30
TEMPO 0314/0324 25015G35KT 2000 TSRA SCT060CB BKN080
Met : +33 3 89 90 31 11



MET'MAP, your aeronautical weather chart ! - Copyright ORBIFLY December 2007 - Disclaimer

ORBIFLY MET'MAP TEAM :

Programming & Development : Alexandra Zaïnal
Concept & original design : Baudouin d'Aumeries
Assistance for programming : Marc-Olivier Méhu
Technical & hardware support : Manuel Goepfert

Contact : metmap@orbifly.com




SOURCES & CREDITS :

   NOAA